sensor_id;sensor_type;location;lat;lon;timestamp;pressure;altitude;pressure_sealevel;temperature;humidity
76815;BME280;65768;49.906;19.384;2023-02-15T00:00:12;99969.44;;;2.18;85.07
76815;BME280;65768;49.906;19.384;2023-02-15T00:03:21;99972.81;;;2.12;85.35
76815;BME280;65768;49.906;19.384;2023-02-15T00:05:49;99967.06;;;2.07;85.37
76815;BME280;65768;49.906;19.384;2023-02-15T00:08:17;99969.48;;;2.04;85.47
76815;BME280;65768;49.906;19.384;2023-02-15T00:10:45;99963.18;;;2.00;85.68
76815;BME280;65768;49.906;19.384;2023-02-15T00:13:13;99966.58;;;2.02;85.84
76815;BME280;65768;49.906;19.384;2023-02-15T00:15:41;99964.63;;;2.01;86.11
76815;BME280;65768;49.906;19.384;2023-02-15T00:18:09;99961.89;;;1.99;86.48
76815;BME280;65768;49.906;19.384;2023-02-15T00:20:38;99953.90;;;1.95;86.56
76815;BME280;65768;49.906;19.384;2023-02-15T00:23:06;99955.52;;;1.93;86.55
76815;BME280;65768;49.906;19.384;2023-02-15T00:25:34;99950.34;;;1.90;86.62
76815;BME280;65768;49.906;19.384;2023-02-15T00:28:02;99949.80;;;1.90;86.52
76815;BME280;65768;49.906;19.384;2023-02-15T00:30:31;99940.20;;;1.90;86.70
76815;BME280;65768;49.906;19.384;2023-02-15T00:32:59;99942.85;;;1.89;86.75
76815;BME280;65768;49.906;19.384;2023-02-15T00:35:27;99942.19;;;1.86;86.81
76815;BME280;65768;49.906;19.384;2023-02-15T00:37:56;99940.77;;;1.83;86.99
76815;BME280;65768;49.906;19.384;2023-02-15T00:40:24;99935.14;;;1.81;87.12
76815;BME280;65768;49.906;19.384;2023-02-15T00:42:53;99929.16;;;1.79;87.60
76815;BME280;65768;49.906;19.384;2023-02-15T00:45:21;99931.51;;;1.77;87.38
76815;BME280;65768;49.906;19.384;2023-02-15T00:47:50;99932.30;;;1.77;87.47
76815;BME280;65768;49.906;19.384;2023-02-15T00:50:18;99931.13;;;1.74;87.36
76815;BME280;65768;49.906;19.384;2023-02-15T00:52:46;99926.16;;;1.72;87.57
76815;BME280;65768;49.906;19.384;2023-02-15T00:55:14;99925.69;;;1.70;87.82
76815;BME280;65768;49.906;19.384;2023-02-15T00:57:42;99918.21;;;1.69;87.81
76815;BME280;65768;49.906;19.384;2023-02-15T01:00:11;99916.20;;;1.69;87.06
76815;BME280;65768;49.906;19.384;2023-02-15T01:02:39;99915.93;;;1.68;87.30
76815;BME280;65768;49.906;19.384;2023-02-15T01:05:07;99909.42;;;1.66;87.65
76815;BME280;65768;49.906;19.384;2023-02-15T01:07:35;99911.04;;;1.67;87.33
76815;BME280;65768;49.906;19.384;2023-02-15T01:10:06;99910.57;;;1.67;86.98
76815;BME280;65768;49.906;19.384;2023-02-15T01:12:34;99906.86;;;1.66;87.08
76815;BME280;65768;49.906;19.384;2023-02-15T01:15:03;99908.80;;;1.60;87.14
76815;BME280;65768;49.906;19.384;2023-02-15T01:17:31;99905.20;;;1.58;87.12
76815;BME280;65768;49.906;19.384;2023-02-15T01:19:59;99900.17;;;1.55;87.06
76815;BME280;65768;49.906;19.384;2023-02-15T01:22:27;99899.05;;;1.48;87.47
76815;BME280;65768;49.906;19.384;2023-02-15T01:24:55;99895.08;;;1.40;87.74
76815;BME280;65768;49.906;19.384;2023-02-15T01:27:24;99890.95;;;1.39;87.35
76815;BME280;65768;49.906;19.384;2023-02-15T01:29:52;99893.02;;;1.42;87.04
76815;BME280;65768;49.906;19.384;2023-02-15T01:32:20;99894.42;;;1.43;87.15
76815;BME280;65768;49.906;19.384;2023-02-15T01:34:48;99887.92;;;1.41;87.35
76815;BME280;65768;49.906;19.384;2023-02-15T01:37:16;99892.14;;;1.39;87.23
76815;BME280;65768;49.906;19.384;2023-02-15T01:39:44;99893.70;;;1.39;87.12
76815;BME280;65768;49.906;19.384;2023-02-15T01:42:12;99890.10;;;1.39;87.28
76815;BME280;65768;49.906;19.384;2023-02-15T01:47:29;99886.63;;;1.39;87.85
76815;BME280;65768;49.906;19.384;2023-02-15T01:50:10;99888.05;;;1.40;87.68
76815;BME280;65768;49.906;19.384;2023-02-15T01:52:57;99882.42;;;1.40;87.56
76815;BME280;65768;49.906;19.384;2023-02-15T01:55:37;99882.75;;;1.40;87.61
76815;BME280;65768;49.906;19.384;2023-02-15T01:58:07;99877.42;;;1.37;87.56
76815;BME280;65768;49.906;19.384;2023-02-15T02:00:35;99876.80;;;1.33;87.78
76815;BME280;65768;49.906;19.384;2023-02-15T02:03:03;99879.34;;;1.30;88.09
76815;BME280;65768;49.906;19.384;2023-02-15T02:05:32;99875.79;;;1.26;87.92
76815;BME280;65768;49.906;19.384;2023-02-15T02:08:01;99878.59;;;1.23;88.01
76815;BME280;65768;49.906;19.384;2023-02-15T02:10:30;99875.38;;;1.22;88.22
76815;BME280;65768;49.906;19.384;2023-02-15T02:13:00;99875.08;;;1.20;88.22
76815;BME280;65768;49.906;19.384;2023-02-15T02:27:29;99853.75;;;1.16;88.07
76815;BME280;65768;49.906;19.384;2023-02-15T02:32:59;99852.06;;;1.09;88.05
76815;BME280;65768;49.906;19.384;2023-02-15T02:41:24;99834.95;;;0.91;88.30
76815;BME280;65768;49.906;19.384;2023-02-15T02:46:30;99836.13;;;0.88;88.21
76815;BME280;65768;49.906;19.384;2023-02-15T02:49:01;99836.48;;;0.85;88.34
76815;BME280;65768;49.906;19.384;2023-02-15T02:51:29;99832.95;;;0.87;88.28
76815;BME280;65768;49.906;19.384;2023-02-15T02:54:00;99832.18;;;0.90;88.07
76815;BME280;65768;49.906;19.384;2023-02-15T02:56:43;99830.88;;;0.94;87.85
76815;BME280;65768;49.906;19.384;2023-02-15T02:59:19;99822.70;;;0.95;87.95
76815;BME280;65768;49.906;19.384;2023-02-15T03:02:11;99821.34;;;0.96;88.11
76815;BME280;65768;49.906;19.384;2023-02-15T03:04:46;99817.42;;;0.91;88.09
76815;BME280;65768;49.906;19.384;2023-02-15T03:07:19;99819.94;;;0.87;88.10
76815;BME280;65768;49.906;19.384;2023-02-15T03:09:54;99819.84;;;0.83;88.24
76815;BME280;65768;49.906;19.384;2023-02-15T03:12:31;99815.22;;;0.83;88.34
76815;BME280;65768;49.906;19.384;2023-02-15T03:17:33;99806.09;;;0.82;88.09
76815;BME280;65768;49.906;19.384;2023-02-15T03:20:08;99807.29;;;0.82;88.34
76815;BME280;65768;49.906;19.384;2023-02-15T03:22:42;99803.63;;;0.82;88.17
76815;BME280;65768;49.906;19.384;2023-02-15T03:25:34;99804.44;;;0.81;87.70
76815;BME280;65768;49.906;19.384;2023-02-15T03:28:12;99807.22;;;0.82;87.69
76815;BME280;65768;49.906;19.384;2023-02-15T03:30:45;99809.23;;;0.81;87.75
76815;BME280;65768;49.906;19.384;2023-02-15T03:33:15;99806.71;;;0.79;87.50
76815;BME280;65768;49.906;19.384;2023-02-15T03:38:43;99802.80;;;0.74;87.82
76815;BME280;65768;49.906;19.384;2023-02-15T03:41:16;99801.18;;;0.70;87.42
76815;BME280;65768;49.906;19.384;2023-02-15T03:43:57;99795.83;;;0.64;87.38
76815;BME280;65768;49.906;19.384;2023-02-15T03:46:45;99789.48;;;0.57;87.71
76815;BME280;65768;49.906;19.384;2023-02-15T03:49:24;99794.92;;;0.51;87.59
76815;BME280;65768;49.906;19.384;2023-02-15T03:51:55;99795.45;;;0.46;87.98
76815;BME280;65768;49.906;19.384;2023-02-15T03:54:28;99800.75;;;0.37;88.21
76815;BME280;65768;49.906;19.384;2023-02-15T03:59:58;99791.52;;;0.12;88.88
76815;BME280;65768;49.906;19.384;2023-02-15T04:02:59;99791.70;;;-0.03;88.77
76815;BME280;65768;49.906;19.384;2023-02-15T04:05:32;99793.23;;;-0.13;89.18
76815;BME280;65768;49.906;19.384;2023-02-15T04:08:00;99791.45;;;-0.25;89.92
76815;BME280;65768;49.906;19.384;2023-02-15T04:10:28;99793.42;;;-0.36;89.90
76815;BME280;65768;49.906;19.384;2023-02-15T04:13:15;99791.79;;;-0.44;90.28
76815;BME280;65768;49.906;19.384;2023-02-15T04:15:43;99798.52;;;-0.54;90.66
76815;BME280;65768;49.906;19.384;2023-02-15T04:18:35;99796.00;;;-0.65;91.06
76815;BME280;65768;49.906;19.384;2023-02-15T04:21:24;99797.52;;;-0.73;90.16
76815;BME280;65768;49.906;19.384;2023-02-15T04:24:12;99798.67;;;-0.78;91.15
76815;BME280;65768;49.906;19.384;2023-02-15T04:27:00;99796.52;;;-0.80;91.32
76815;BME280;65768;49.906;19.384;2023-02-15T04:29:28;99796.45;;;-0.81;91.51
76815;BME280;65768;49.906;19.384;2023-02-15T04:31:59;99803.66;;;-0.85;92.31
76815;BME280;65768;49.906;19.384;2023-02-15T04:34:27;99803.26;;;-0.88;92.64
76815;BME280;65768;49.906;19.384;2023-02-15T04:36:55;99796.40;;;-0.93;92.68
76815;BME280;65768;49.906;19.384;2023-02-15T04:39:23;99794.17;;;-0.99;92.70
76815;BME280;65768;49.906;19.384;2023-02-15T04:41:51;99794.49;;;-1.03;92.94
76815;BME280;65768;49.906;19.384;2023-02-15T04:44:19;99796.27;;;-1.07;92.70
76815;BME280;65768;49.906;19.384;2023-02-15T04:46:47;99792.94;;;-1.08;92.64
76815;BME280;65768;49.906;19.384;2023-02-15T04:49:15;99793.92;;;-1.14;92.99
76815;BME280;65768;49.906;19.384;2023-02-15T04:51:43;99795.35;;;-1.18;93.49
76815;BME280;65768;49.906;19.384;2023-02-15T04:54:11;99796.52;;;-1.21;93.13
76815;BME280;65768;49.906;19.384;2023-02-15T04:56:39;99793.57;;;-1.21;93.40
76815;BME280;65768;49.906;19.384;2023-02-15T04:59:10;99785.33;;;-1.19;92.87
76815;BME280;65768;49.906;19.384;2023-02-15T05:01:38;99791.80;;;-1.20;93.03
76815;BME280;65768;49.906;19.384;2023-02-15T05:04:06;99795.34;;;-1.21;92.88
76815;BME280;65768;49.906;19.384;2023-02-15T05:06:34;99796.80;;;-1.20;92.91
76815;BME280;65768;49.906;19.384;2023-02-15T05:09:02;99795.11;;;-1.24;93.48
76815;BME280;65768;49.906;19.384;2023-02-15T05:11:30;99790.45;;;-1.34;93.37
76815;BME280;65768;49.906;19.384;2023-02-15T05:13:58;99796.06;;;-1.41;93.43
76815;BME280;65768;49.906;19.384;2023-02-15T05:16:26;99797.09;;;-1.46;93.66
76815;BME280;65768;49.906;19.384;2023-02-15T05:18:55;99795.70;;;-1.48;93.78
76815;BME280;65768;49.906;19.384;2023-02-15T05:21:23;99796.74;;;-1.51;93.93
76815;BME280;65768;49.906;19.384;2023-02-15T05:23:51;99800.46;;;-1.53;94.04
76815;BME280;65768;49.906;19.384;2023-02-15T05:26:22;99801.47;;;-1.58;93.83
76815;BME280;65768;49.906;19.384;2023-02-15T05:29:10;99801.13;;;-1.63;93.91
76815;BME280;65768;49.906;19.384;2023-02-15T05:31:38;99800.95;;;-1.66;93.79
76815;BME280;65768;49.906;19.384;2023-02-15T05:34:06;99801.20;;;-1.69;93.88
76815;BME280;65768;49.906;19.384;2023-02-15T05:36:34;99801.19;;;-1.69;94.00
76815;BME280;65768;49.906;19.384;2023-02-15T05:39:02;99801.85;;;-1.70;94.07
76815;BME280;65768;49.906;19.384;2023-02-15T05:41:33;99803.59;;;-1.71;93.79
76815;BME280;65768;49.906;19.384;2023-02-15T05:44:01;99801.63;;;-1.73;94.34
76815;BME280;65768;49.906;19.384;2023-02-15T05:46:29;99799.07;;;-1.72;94.58
76815;BME280;65768;49.906;19.384;2023-02-15T05:48:57;99801.38;;;-1.76;94.66
76815;BME280;65768;49.906;19.384;2023-02-15T05:51:25;99798.91;;;-1.77;94.68
76815;BME280;65768;49.906;19.384;2023-02-15T05:53:53;99805.86;;;-1.75;94.64
76815;BME280;65768;49.906;19.384;2023-02-15T05:56:21;99802.59;;;-1.73;94.94
76815;BME280;65768;49.906;19.384;2023-02-15T05:58:49;99801.12;;;-1.72;94.62
76815;BME280;65768;49.906;19.384;2023-02-15T06:01:18;99805.60;;;-1.70;94.69
76815;BME280;65768;49.906;19.384;2023-02-15T06:03:46;99809.25;;;-1.66;94.75
76815;BME280;65768;49.906;19.384;2023-02-15T06:06:14;99806.56;;;-1.61;94.31
76815;BME280;65768;49.906;19.384;2023-02-15T06:08:43;99813.37;;;-1.55;94.75
76815;BME280;65768;49.906;19.384;2023-02-15T06:11:11;99813.80;;;-1.51;94.04
76815;BME280;65768;49.906;19.384;2023-02-15T06:13:39;99815.19;;;-1.48;94.25
76815;BME280;65768;49.906;19.384;2023-02-15T06:16:07;99817.04;;;-1.44;94.39
76815;BME280;65768;49.906;19.384;2023-02-15T06:18:35;99818.89;;;-1.42;94.06
76815;BME280;65768;49.906;19.384;2023-02-15T06:21:03;99821.52;;;-1.30;93.76
76815;BME280;65768;49.906;19.384;2023-02-15T06:23:31;99822.79;;;-1.24;93.41
76815;BME280;65768;49.906;19.384;2023-02-15T06:25:59;99827.98;;;-1.28;92.39
76815;BME280;65768;49.906;19.384;2023-02-15T06:28:27;99827.30;;;-1.32;93.17
76815;BME280;65768;49.906;19.384;2023-02-15T06:30:55;99824.34;;;-1.38;92.94
76815;BME280;65768;49.906;19.384;2023-02-15T06:33:23;99820.18;;;-1.41;93.49
76815;BME280;65768;49.906;19.384;2023-02-15T06:35:52;99825.18;;;-1.36;93.51
76815;BME280;65768;49.906;19.384;2023-02-15T06:38:20;99829.09;;;-1.29;93.59
76815;BME280;65768;49.906;19.384;2023-02-15T06:40:48;99828.73;;;-1.25;93.41
76815;BME280;65768;49.906;19.384;2023-02-15T06:43:16;99827.63;;;-1.24;93.59
76815;BME280;65768;49.906;19.384;2023-02-15T06:45:44;99827.75;;;-1.24;93.17
76815;BME280;65768;49.906;19.384;2023-02-15T06:48:12;99827.17;;;-1.22;93.25
76815;BME280;65768;49.906;19.384;2023-02-15T06:50:40;99823.15;;;-1.17;92.84
76815;BME280;65768;49.906;19.384;2023-02-15T06:53:08;99821.41;;;-1.12;93.07
76815;BME280;65768;49.906;19.384;2023-02-15T06:55:36;99818.02;;;-1.10;92.88
76815;BME280;65768;49.906;19.384;2023-02-15T06:58:04;99819.86;;;-1.03;93.19
76815;BME280;65768;49.906;19.384;2023-02-15T07:00:33;99820.44;;;-0.97;92.95
76815;BME280;65768;49.906;19.384;2023-02-15T07:03:01;99815.84;;;-0.92;92.90
76815;BME280;65768;49.906;19.384;2023-02-15T07:05:33;99812.15;;;-0.86;92.86
76815;BME280;65768;49.906;19.384;2023-02-15T07:08:01;99812.20;;;-0.76;92.79
76815;BME280;65768;49.906;19.384;2023-02-15T07:10:29;99816.81;;;-0.63;93.02
76815;BME280;65768;49.906;19.384;2023-02-15T07:12:57;99813.14;;;-0.58;92.74
76815;BME280;65768;49.906;19.384;2023-02-15T07:15:25;99808.65;;;-0.49;92.61
76815;BME280;65768;49.906;19.384;2023-02-15T07:17:53;99810.93;;;-0.42;92.45
76815;BME280;65768;49.906;19.384;2023-02-15T07:20:22;99809.23;;;-0.37;92.09
76815;BME280;65768;49.906;19.384;2023-02-15T07:22:51;99807.61;;;-0.29;91.73
76815;BME280;65768;49.906;19.384;2023-02-15T07:25:19;99807.48;;;-0.23;91.53
76815;BME280;65768;49.906;19.384;2023-02-15T07:27:47;99802.88;;;-0.18;91.34
76815;BME280;65768;49.906;19.384;2023-02-15T07:30:16;99805.45;;;-0.13;91.51
76815;BME280;65768;49.906;19.384;2023-02-15T07:32:44;99800.24;;;-0.06;91.51
76815;BME280;65768;49.906;19.384;2023-02-15T07:35:32;99798.27;;;0.03;90.82
76815;BME280;65768;49.906;19.384;2023-02-15T07:38:01;99800.11;;;0.10;90.89
76815;BME280;65768;49.906;19.384;2023-02-15T07:40:29;99798.86;;;0.17;90.67
76815;BME280;65768;49.906;19.384;2023-02-15T07:42:57;99797.67;;;0.22;90.13
76815;BME280;65768;49.906;19.384;2023-02-15T07:45:26;99802.23;;;0.32;90.19
76815;BME280;65768;49.906;19.384;2023-02-15T07:47:54;99801.86;;;0.36;90.10
76815;BME280;65768;49.906;19.384;2023-02-15T07:50:23;99801.61;;;0.40;89.90
76815;BME280;65768;49.906;19.384;2023-02-15T07:52:51;99801.71;;;0.47;90.08
76815;BME280;65768;49.906;19.384;2023-02-15T07:55:20;99800.55;;;0.53;89.73
76815;BME280;65768;49.906;19.384;2023-02-15T07:57:49;99800.19;;;0.60;89.93
76815;BME280;65768;49.906;19.384;2023-02-15T08:00:19;99799.13;;;0.71;89.59
76815;BME280;65768;49.906;19.384;2023-02-15T08:02:54;99803.02;;;0.78;89.38
76815;BME280;65768;49.906;19.384;2023-02-15T08:05:43;99799.08;;;0.83;88.86
76815;BME280;65768;49.906;19.384;2023-02-15T08:08:12;99795.63;;;0.88;88.85
76815;BME280;65768;49.906;19.384;2023-02-15T08:13:53;99790.58;;;1.00;88.27
76815;BME280;65768;49.906;19.384;2023-02-15T08:16:33;99790.34;;;1.07;88.05
76815;BME280;65768;49.906;19.384;2023-02-15T08:19:08;99791.93;;;1.13;87.78
76815;BME280;65768;49.906;19.384;2023-02-15T08:21:39;99789.92;;;1.23;87.81
76815;BME280;65768;49.906;19.384;2023-02-15T08:24:09;99788.55;;;1.31;87.66
76815;BME280;65768;49.906;19.384;2023-02-15T08:26:39;99790.30;;;1.37;87.20
76815;BME280;65768;49.906;19.384;2023-02-15T08:29:08;99787.67;;;1.45;87.17
76815;BME280;65768;49.906;19.384;2023-02-15T08:31:37;99784.92;;;1.50;87.06
76815;BME280;65768;49.906;19.384;2023-02-15T08:34:05;99781.05;;;1.54;86.81
76815;BME280;65768;49.906;19.384;2023-02-15T08:36:33;99777.80;;;1.63;86.84
76815;BME280;65768;49.906;19.384;2023-02-15T08:39:04;99777.54;;;1.73;86.50
76815;BME280;65768;49.906;19.384;2023-02-15T08:41:34;99772.02;;;1.81;86.28
76815;BME280;65768;49.906;19.384;2023-02-15T08:44:05;99764.06;;;1.86;86.22
76815;BME280;65768;49.906;19.384;2023-02-15T08:46:37;99763.64;;;1.93;86.20
76815;BME280;65768;49.906;19.384;2023-02-15T08:49:06;99763.89;;;2.06;85.91
76815;BME280;65768;49.906;19.384;2023-02-15T08:51:36;99762.80;;;2.14;85.37
76815;BME280;65768;49.906;19.384;2023-02-15T08:54:07;99755.98;;;2.21;84.98
76815;BME280;65768;49.906;19.384;2023-02-15T08:56:39;99753.95;;;2.31;85.01
76815;BME280;65768;49.906;19.384;2023-02-15T08:59:16;99751.92;;;2.41;84.55
76815;BME280;65768;49.906;19.384;2023-02-15T09:01:45;99750.88;;;2.46;83.90
76815;BME280;65768;49.906;19.384;2023-02-15T09:04:13;99750.67;;;2.54;84.55
76815;BME280;65768;49.906;19.384;2023-02-15T09:06:46;99751.46;;;2.63;84.12
76815;BME280;65768;49.906;19.384;2023-02-15T09:09:15;99754.02;;;2.77;83.02
76815;BME280;65768;49.906;19.384;2023-02-15T09:11:46;99748.33;;;2.93;83.53
76815;BME280;65768;49.906;19.384;2023-02-15T09:14:17;99750.06;;;2.93;83.06
76815;BME280;65768;49.906;19.384;2023-02-15T09:16:48;99745.51;;;3.04;82.76
76815;BME280;65768;49.906;19.384;2023-02-15T09:19:20;99742.86;;;3.19;80.91
76815;BME280;65768;49.906;19.384;2023-02-15T09:21:48;99742.94;;;3.33;80.93
76815;BME280;65768;49.906;19.384;2023-02-15T09:24:17;99742.06;;;3.45;81.61
76815;BME280;65768;49.906;19.384;2023-02-15T09:26:47;99740.08;;;3.57;80.85
76815;BME280;65768;49.906;19.384;2023-02-15T09:29:17;99735.98;;;3.58;81.21
76815;BME280;65768;49.906;19.384;2023-02-15T09:31:47;99736.35;;;3.65;81.17
76815;BME280;65768;49.906;19.384;2023-02-15T09:34:18;99732.48;;;3.70;81.81
76815;BME280;65768;49.906;19.384;2023-02-15T09:36:47;99730.48;;;3.71;81.45
76815;BME280;65768;49.906;19.384;2023-02-15T09:39:19;99725.98;;;3.81;81.35
76815;BME280;65768;49.906;19.384;2023-02-15T09:42:04;99727.22;;;3.78;81.20
76815;BME280;65768;49.906;19.384;2023-02-15T09:53:11;99707.23;;;4.34;78.52
76815;BME280;65768;49.906;19.384;2023-02-15T09:56:09;99703.02;;;4.39;76.53
76815;BME280;65768;49.906;19.384;2023-02-15T10:09:49;99689.64;;;4.92;77.13
76815;BME280;65768;49.906;19.384;2023-02-15T10:18:40;99677.67;;;5.17;76.44
76815;BME280;65768;49.906;19.384;2023-02-15T10:21:41;99677.77;;;5.23;76.06
76815;BME280;65768;49.906;19.384;2023-02-15T10:24:34;99679.69;;;5.31;76.17
76815;BME280;65768;49.906;19.384;2023-02-15T10:27:12;99678.06;;;5.38;75.35
76815;BME280;65768;49.906;19.384;2023-02-15T10:32:32;99669.61;;;5.19;76.77
76815;BME280;65768;49.906;19.384;2023-02-15T10:38:35;99659.33;;;5.44;73.85
76815;BME280;65768;49.906;19.384;2023-02-15T10:47:11;99661.02;;;5.67;72.76
76815;BME280;65768;49.906;19.384;2023-02-15T11:02:14;99636.83;;;6.17;70.99
76815;BME280;65768;49.906;19.384;2023-02-15T11:07:44;99628.98;;;6.20;72.31
76815;BME280;65768;49.906;19.384;2023-02-15T11:12:52;99617.32;;;6.44;72.60
76815;BME280;65768;49.906;19.384;2023-02-15T11:18:05;99610.52;;;6.39;69.27
76815;BME280;65768;49.906;19.384;2023-02-15T11:20:46;99602.65;;;6.54;69.89
76815;BME280;65768;49.906;19.384;2023-02-15T11:23:19;99602.67;;;6.64;72.01
76815;BME280;65768;49.906;19.384;2023-02-15T11:25:57;99600.09;;;6.64;70.14
76815;BME280;65768;49.906;19.384;2023-02-15T11:28:34;99593.77;;;6.62;68.49
76815;BME280;65768;49.906;19.384;2023-02-15T11:31:13;99590.70;;;6.72;70.83
76815;BME280;65768;49.906;19.384;2023-02-15T11:33:47;99589.11;;;6.77;70.94
76815;BME280;65768;49.906;19.384;2023-02-15T11:36:39;99584.89;;;6.80;70.25
76815;BME280;65768;49.906;19.384;2023-02-15T11:39:14;99584.32;;;6.88;69.22
76815;BME280;65768;49.906;19.384;2023-02-15T11:41:55;99589.95;;;6.90;67.04
76815;BME280;65768;49.906;19.384;2023-02-15T11:44:29;99582.42;;;6.92;67.19
76815;BME280;65768;49.906;19.384;2023-02-15T11:47:00;99577.45;;;6.98;67.97
76815;BME280;65768;49.906;19.384;2023-02-15T11:49:33;99573.60;;;6.92;67.30
76815;BME280;65768;49.906;19.384;2023-02-15T11:52:08;99570.08;;;6.91;67.11
76815;BME280;65768;49.906;19.384;2023-02-15T11:54:48;99569.87;;;6.95;67.62
76815;BME280;65768;49.906;19.384;2023-02-15T11:57:36;99566.45;;;7.11;67.60
76815;BME280;65768;49.906;19.384;2023-02-15T12:02:52;99562.80;;;7.15;68.07
76815;BME280;65768;49.906;19.384;2023-02-15T12:05:23;99562.88;;;7.08;68.49
76815;BME280;65768;49.906;19.384;2023-02-15T12:07:56;99554.88;;;7.07;68.44
76815;BME280;65768;49.906;19.384;2023-02-15T12:10:36;99548.27;;;7.16;66.71
76815;BME280;65768;49.906;19.384;2023-02-15T12:13:16;99546.24;;;7.13;66.40
76815;BME280;65768;49.906;19.384;2023-02-15T12:15:55;99540.88;;;7.18;68.54
76815;BME280;65768;49.906;19.384;2023-02-15T12:21:12;99538.14;;;7.30;67.87
76815;BME280;65768;49.906;19.384;2023-02-15T12:23:51;99533.95;;;7.33;67.35
76815;BME280;65768;49.906;19.384;2023-02-15T12:28:56;99531.52;;;7.49;69.51
76815;BME280;65768;49.906;19.384;2023-02-15T12:31:35;99529.63;;;7.54;68.87
76815;BME280;65768;49.906;19.384;2023-02-15T12:34:12;99528.09;;;7.55;66.71
76815;BME280;65768;49.906;19.384;2023-02-15T12:36:44;99526.93;;;7.56;66.15
76815;BME280;65768;49.906;19.384;2023-02-15T12:39:20;99520.48;;;7.61;67.15
76815;BME280;65768;49.906;19.384;2023-02-15T12:42:02;99519.32;;;7.62;67.12
76815;BME280;65768;49.906;19.384;2023-02-15T12:44:35;99512.58;;;7.63;66.49
76815;BME280;65768;49.906;19.384;2023-02-15T12:47:10;99515.75;;;7.65;66.72
76815;BME280;65768;49.906;19.384;2023-02-15T12:50:04;99512.19;;;7.62;67.39
76815;BME280;65768;49.906;19.384;2023-02-15T12:52:33;99514.46;;;7.62;67.12
76815;BME280;65768;49.906;19.384;2023-02-15T12:55:31;99508.12;;;7.65;67.14
76815;BME280;65768;49.906;19.384;2023-02-15T12:58:18;99507.15;;;7.67;67.42
76815;BME280;65768;49.906;19.384;2023-02-15T13:00:47;99505.30;;;7.63;66.96
76815;BME280;65768;49.906;19.384;2023-02-15T13:03:21;99502.79;;;7.72;67.46
76815;BME280;65768;49.906;19.384;2023-02-15T13:05:53;99494.61;;;7.76;67.42
76815;BME280;65768;49.906;19.384;2023-02-15T13:08:28;99491.73;;;7.79;67.22
76815;BME280;65768;49.906;19.384;2023-02-15T13:13:32;99490.48;;;7.77;66.87
76815;BME280;65768;49.906;19.384;2023-02-15T13:16:05;99485.11;;;7.84;67.26
76815;BME280;65768;49.906;19.384;2023-02-15T13:18:45;99483.59;;;7.91;68.50
76815;BME280;65768;49.906;19.384;2023-02-15T13:21:16;99480.44;;;7.90;66.38
76815;BME280;65768;49.906;19.384;2023-02-15T13:23:49;99475.34;;;7.93;65.78
76815;BME280;65768;49.906;19.384;2023-02-15T13:26:21;99476.46;;;7.96;65.57
76815;BME280;65768;49.906;19.384;2023-02-15T13:28:54;99469.86;;;7.96;66.84
76815;BME280;65768;49.906;19.384;2023-02-15T13:31:26;99475.06;;;7.95;66.64
76815;BME280;65768;49.906;19.384;2023-02-15T13:34:44;99469.45;;;7.99;66.06
76815;BME280;65768;49.906;19.384;2023-02-15T13:48:19;99463.78;;;8.06;67.09
76815;BME280;65768;49.906;19.384;2023-02-15T13:51:51;99463.02;;;8.04;65.83
76815;BME280;65768;49.906;19.384;2023-02-15T13:59:52;99456.52;;;8.07;67.80
76815;BME280;65768;49.906;19.384;2023-02-15T14:18:55;99446.55;;;8.60;66.65
76815;BME280;65768;49.906;19.384;2023-02-15T14:21:31;99442.14;;;9.48;63.42
76815;BME280;65768;49.906;19.384;2023-02-15T14:31:58;99430.84;;;10.94;58.29
76815;BME280;65768;49.906;19.384;2023-02-15T14:34:53;99421.66;;;11.82;55.50
76815;BME280;65768;49.906;19.384;2023-02-15T14:38:00;99424.28;;;12.44;52.74
76815;BME280;65768;49.906;19.384;2023-02-15T14:49:19;99410.13;;;12.05;53.87
76815;BME280;65768;49.906;19.384;2023-02-15T14:56:46;99413.19;;;10.46;58.02
76815;BME280;65768;49.906;19.384;2023-02-15T15:05:14;99410.34;;;11.39;55.62
76815;BME280;65768;49.906;19.384;2023-02-15T15:07:53;99411.42;;;11.11;56.80
76815;BME280;65768;49.906;19.384;2023-02-15T15:12:52;99408.40;;;10.35;58.78
76815;BME280;65768;49.906;19.384;2023-02-15T15:31:31;99396.86;;;8.46;63.98
76815;BME280;65768;49.906;19.384;2023-02-15T15:37:31;99398.52;;;7.79;66.15
76815;BME280;65768;49.906;19.384;2023-02-15T15:49:14;99394.46;;;6.45;69.58
76815;BME280;65768;49.906;19.384;2023-02-15T15:51:44;99389.80;;;6.22;70.47
76815;BME280;65768;49.906;19.384;2023-02-15T15:54:24;99389.11;;;6.03;71.23
76815;BME280;65768;49.906;19.384;2023-02-15T15:57:00;99386.73;;;5.83;71.92
76815;BME280;65768;49.906;19.384;2023-02-15T15:59:32;99388.95;;;5.68;72.45
76815;BME280;65768;49.906;19.384;2023-02-15T16:02:10;99388.00;;;5.52;72.52
76815;BME280;65768;49.906;19.384;2023-02-15T16:04:39;99385.38;;;5.30;73.13
76815;BME280;65768;49.906;19.384;2023-02-15T16:10:02;99386.77;;;5.05;74.68
76815;BME280;65768;49.906;19.384;2023-02-15T16:12:36;99393.03;;;4.93;74.58
76815;BME280;65768;49.906;19.384;2023-02-15T16:15:19;99390.52;;;4.87;74.82
76815;BME280;65768;49.906;19.384;2023-02-15T16:17:50;99397.61;;;4.74;75.67
76815;BME280;65768;49.906;19.384;2023-02-15T16:20:31;99399.33;;;4.66;76.26
76815;BME280;65768;49.906;19.384;2023-02-15T16:23:16;99398.31;;;4.58;76.93
76815;BME280;65768;49.906;19.384;2023-02-15T16:28:54;99399.13;;;4.46;77.47
76815;BME280;65768;49.906;19.384;2023-02-15T16:31:23;99403.10;;;4.42;76.61
76815;BME280;65768;49.906;19.384;2023-02-15T16:33:53;99403.23;;;4.21;77.58
76815;BME280;65768;49.906;19.384;2023-02-15T16:36:27;99402.70;;;4.05;78.69
76815;BME280;65768;49.906;19.384;2023-02-15T16:41:26;99403.51;;;3.93;79.12
76815;BME280;65768;49.906;19.384;2023-02-15T16:44:10;99403.21;;;3.94;78.60
76815;BME280;65768;49.906;19.384;2023-02-15T16:46:40;99401.69;;;3.76;79.35
76815;BME280;65768;49.906;19.384;2023-02-15T16:49:22;99402.73;;;3.58;79.86
76815;BME280;65768;49.906;19.384;2023-02-15T16:52:03;99399.15;;;3.47;80.61
76815;BME280;65768;49.906;19.384;2023-02-15T16:54:36;99403.91;;;3.43;81.47